createdAt,value
2017-09-19T00:04:57.000Z,1007.786
2017-09-19T00:14:58.000Z,1007.806
2017-09-19T00:24:57.000Z,1007.801
2017-09-19T00:34:57.000Z,1007.784
2017-09-19T00:44:57.000Z,1007.77
2017-09-19T00:54:57.000Z,1007.711
2017-09-19T01:04:57.000Z,1007.723
2017-09-19T01:14:57.000Z,1007.736
2017-09-19T01:24:57.000Z,1007.776
2017-09-19T01:34:57.000Z,1007.831
2017-09-19T01:44:57.000Z,1007.815
2017-09-19T01:54:57.000Z,1007.805
2017-09-19T02:14:57.000Z,1007.769
2017-09-19T02:24:58.000Z,1007.801
2017-09-19T02:34:58.000Z,1007.733
2017-09-19T02:44:58.000Z,1007.828
2017-09-19T02:54:58.000Z,1007.875
2017-09-19T03:04:58.000Z,1007.876
2017-09-19T03:14:58.000Z,1007.903
2017-09-19T03:24:58.000Z,1007.857
2017-09-19T03:34:58.000Z,1007.828
2017-09-19T03:44:58.000Z,1007.87
2017-09-19T03:54:58.000Z,1007.919
2017-09-19T04:04:58.000Z,1007.915
2017-09-19T04:14:58.000Z,1007.91
2017-09-19T04:24:58.000Z,1007.936
2017-09-19T04:34:58.000Z,1007.975
2017-09-19T04:44:58.000Z,1008.006
2017-09-19T04:54:58.000Z,1008.129
2017-09-19T05:04:58.000Z,1008.223
2017-09-19T05:14:58.000Z,1008.307
2017-09-19T05:24:58.000Z,1008.433
2017-09-19T05:34:58.000Z,1008.473
2017-09-19T05:44:58.000Z,1008.489
2017-09-19T05:54:58.000Z,1008.63
2017-09-19T06:04:58.000Z,1008.705
2017-09-19T06:14:58.000Z,1008.845
2017-09-19T06:24:58.000Z,1008.967
2017-09-19T06:34:58.000Z,1009.021
2017-09-19T06:44:58.000Z,1009.066
2017-09-19T06:54:58.000Z,1009.131
2017-09-19T07:04:58.000Z,1009.143
2017-09-19T07:14:58.000Z,1009.224
2017-09-19T07:24:58.000Z,1009.32
2017-09-19T07:34:58.000Z,1009.428
2017-09-19T07:44:58.000Z,1009.6
2017-09-19T07:54:58.000Z,1009.676
2017-09-19T08:04:58.000Z,1009.68
2017-09-19T08:14:58.000Z,1009.699
2017-09-19T08:24:58.000Z,1009.846
2017-09-19T08:34:58.000Z,1009.92
2017-09-19T08:44:58.000Z,1010.048
2017-09-19T08:54:58.000Z,1010.069
2017-09-19T09:04:58.000Z,1010.045
2017-09-19T09:14:58.000Z,1010.14
2017-09-19T09:24:58.000Z,1010.163
2017-09-19T09:34:58.000Z,1010.212
2017-09-19T09:44:58.000Z,1010.197
2017-09-19T09:54:58.000Z,1010.215
2017-09-19T10:04:58.000Z,1010.292
2017-09-19T10:14:59.000Z,1010.323
2017-09-19T10:24:59.000Z,1010.424
2017-09-19T10:34:59.000Z,1010.425
2017-09-19T10:44:59.000Z,1010.487
2017-09-19T10:54:59.000Z,1010.446
2017-09-19T11:04:59.000Z,1010.43
2017-09-19T11:14:59.000Z,1010.442
2017-09-19T11:24:59.000Z,1010.485
2017-09-19T11:34:59.000Z,1010.509
2017-09-19T11:44:59.000Z,1010.601
2017-09-19T11:54:59.000Z,1010.659
2017-09-19T12:04:59.000Z,1010.689
2017-09-19T12:14:59.000Z,1010.705
2017-09-19T12:24:59.000Z,1010.703
2017-09-19T12:34:59.000Z,1010.769
2017-09-19T12:44:59.000Z,1010.833
2017-09-19T12:54:59.000Z,1010.831
2017-09-19T13:04:59.000Z,1010.878
2017-09-19T13:14:59.000Z,1010.817
2017-09-19T13:24:59.000Z,1010.937
2017-09-19T13:34:59.000Z,1010.937
2017-09-19T13:44:59.000Z,1010.97
2017-09-19T13:54:59.000Z,1010.92
2017-09-19T14:04:59.000Z,1010.881
2017-09-19T14:14:59.000Z,1010.945
2017-09-19T14:24:59.000Z,1010.926
2017-09-19T14:34:59.000Z,1010.91
2017-09-19T14:44:59.000Z,1010.808
2017-09-19T14:54:59.000Z,1010.707
2017-09-19T15:04:59.000Z,1010.775
2017-09-19T15:14:59.000Z,1010.877
2017-09-19T15:24:59.000Z,1010.888
2017-09-19T15:34:59.000Z,1011.034
2017-09-19T15:44:59.000Z,1011.081
2017-09-19T15:54:59.000Z,1011.184
2017-09-19T16:04:59.000Z,1011.228
2017-09-19T16:14:59.000Z,1011.272
2017-09-19T16:24:59.000Z,1011.295
2017-09-19T16:34:59.000Z,1011.366
2017-09-19T16:54:59.000Z,1011.518
2017-09-19T17:04:59.000Z,1011.527
2017-09-19T17:14:59.000Z,1011.673
2017-09-19T17:24:59.000Z,1011.846
2017-09-19T17:34:59.000Z,1011.857
2017-09-19T17:44:59.000Z,1011.952
2017-09-19T17:55:00.000Z,1012.035
2017-09-19T18:05:00.000Z,1012.061
2017-09-19T18:15:00.000Z,1012.148
2017-09-19T18:25:00.000Z,1012.214
2017-09-19T18:35:00.000Z,1012.344
2017-09-19T18:45:00.000Z,1012.363
2017-09-19T18:55:00.000Z,1012.474
2017-09-19T19:05:00.000Z,1012.486
2017-09-19T19:15:00.000Z,1012.544
2017-09-19T19:25:00.000Z,1012.575
2017-09-19T19:35:00.000Z,1012.538
2017-09-19T19:45:00.000Z,1012.626
2017-09-19T19:55:00.000Z,1012.644
2017-09-19T20:05:00.000Z,1012.707
2017-09-19T20:15:00.000Z,1012.781
2017-09-19T20:25:00.000Z,1012.736
2017-09-19T20:35:00.000Z,1012.742
2017-09-19T20:45:00.000Z,1012.721
2017-09-19T20:55:00.000Z,1012.793
2017-09-19T21:05:00.000Z,1012.786
2017-09-19T21:15:00.000Z,1012.772
2017-09-19T21:25:00.000Z,1012.797
2017-09-19T21:35:00.000Z,1012.796
2017-09-19T21:45:00.000Z,1012.727
2017-09-19T21:55:00.000Z,1012.796
2017-09-19T22:05:00.000Z,1012.818
2017-09-19T22:15:00.000Z,1012.724
2017-09-19T22:25:00.000Z,1012.658
2017-09-19T22:35:00.000Z,1012.67
2017-09-19T22:45:00.000Z,1012.686
2017-09-19T22:55:00.000Z,1012.677
2017-09-19T23:05:00.000Z,1012.647
2017-09-19T23:15:00.000Z,1012.68
2017-09-19T23:25:00.000Z,1012.728
2017-09-19T23:35:00.000Z,1012.765
2017-09-19T23:45:00.000Z,1012.804
2017-09-19T23:55:00.000Z,1012.786
